Akin, Illinois
Current Conditions -  °F | °C
As of 2:15 AM on Monday 22 Dec 2014 (Local Time) from KHSB Reporting Station
Overcast Overcast  
Wind Chill: 32°   Ceiling: 8000
Heat Index: 37°   Visibility: 10mi
Dew Point: 32°   Wind: 7mph
Humidity: 80%   Direction: 90°E
Pressure: 29.96"   Gusts: NA
Location:  37.99°N, 88.75°W
Report Text: KHSB 220815Z AUTO 09006KT 10SM OVC080 03/00 A2996 RMK AO2 T00301001
Loading
Personal Weather Stations






























Interactive Weather Map New forecast layout! Learn more

10-Day Weather Forecast

Advertisements
Track Severe Weather on mobile